2026/07/29

Sensor Date Temp./Hum.
h4-hermonville 29-07-2026 - 23:58 29.1°C / 32%
h2-hermonville 29-07-2026 - 23:54 28.7°C / 34%
h1-hermonville 29-07-2026 - 23:54 29°C / 32.5%
h3-hermonville 29-07-2026 - 23:50 29.3°C / 31%
h4-hermonville 29-07-2026 - 23:48 29.2°C / 31.5%
h2-hermonville 29-07-2026 - 23:44 29°C / 33.5%
h1-hermonville 29-07-2026 - 23:44 29.3°C / 32%
h3-hermonville 29-07-2026 - 23:40 29.7°C / 30.5%
h4-hermonville 29-07-2026 - 23:38 29.3°C / 31.5%
h2-hermonville 29-07-2026 - 23:34 29.2°C / 32.5%
h1-hermonville 29-07-2026 - 23:34 29.4°C / 31.5%
h3-hermonville 29-07-2026 - 23:30 30°C / 30%
h4-hermonville 29-07-2026 - 23:28 29.5°C / 31%
h2-hermonville 29-07-2026 - 23:24 29.5°C / 32.5%
h1-hermonville 29-07-2026 - 23:24 29.8°C / 31%
h3-hermonville 29-07-2026 - 23:20 30.3°C / 29.5%
h4-hermonville 29-07-2026 - 23:18 29.6°C / 31%
h2-hermonville 29-07-2026 - 23:14 29.4°C / 32%
h1-hermonville 29-07-2026 - 23:14 29.8°C / 30.5%
h3-hermonville 29-07-2026 - 23:10 30.4°C / 29%
h2-hermonville 29-07-2026 - 23:04 28.9°C / 33.5%
h1-hermonville 29-07-2026 - 23:04 29.6°C / 31%
h3-hermonville 29-07-2026 - 23:00 30.6°C / 28.5%
h4-hermonville 29-07-2026 - 22:58 29.7°C / 30.5%
h2-hermonville 29-07-2026 - 22:54 28.6°C / 34%
h1-hermonville 29-07-2026 - 22:54 29.6°C / 31%
h3-hermonville 29-07-2026 - 22:50 30.7°C / 29%
h4-hermonville 29-07-2026 - 22:48 29.6°C / 31%
h2-hermonville 29-07-2026 - 22:44 28.1°C / 37%
h1-hermonville 29-07-2026 - 22:44 29.6°C / 32%
h4-hermonville 29-07-2026 - 22:38 29.6°C / 32%
h2-hermonville 29-07-2026 - 22:34 27.7°C / 38%
h1-hermonville 29-07-2026 - 22:34 29.1°C / 34%
h3-hermonville 29-07-2026 - 22:30 30.8°C / 28.5%
h4-hermonville 29-07-2026 - 22:28 29.7°C / 31.5%
h2-hermonville 29-07-2026 - 22:24 28.1°C / 37.5%
h1-hermonville 29-07-2026 - 22:24 29.4°C / 34%
h3-hermonville 29-07-2026 - 22:20 30.7°C / 29.5%
h4-hermonville 29-07-2026 - 22:18 29.8°C / 31%
h2-hermonville 29-07-2026 - 22:14 28.5°C / 35.5%
h1-hermonville 29-07-2026 - 22:14 29.7°C / 33%
h3-hermonville 29-07-2026 - 22:10 30.7°C / 29.5%
h4-hermonville 29-07-2026 - 22:08 29.8°C / 31%
h2-hermonville 29-07-2026 - 22:04 28.8°C / 35%
h1-hermonville 29-07-2026 - 22:04 29.8°C / 32%
h3-hermonville 29-07-2026 - 22:00 30.6°C / 29%
h4-hermonville 29-07-2026 - 21:58 30°C / 31%
h2-hermonville 29-07-2026 - 21:54 29.9°C / 35.5%
h1-hermonville 29-07-2026 - 21:54 29.6°C / 31.5%
h3-hermonville 29-07-2026 - 21:50 30.3°C / 29.5%
h4-hermonville 29-07-2026 - 21:48 29.9°C / 32%
h2-hermonville 29-07-2026 - 21:44 29.4°C / 38%
h1-hermonville 29-07-2026 - 21:44 29.5°C / 33.5%
h3-hermonville 29-07-2026 - 21:40 30°C / 31%
h4-hermonville 29-07-2026 - 21:38 29.9°C / 34.5%
h2-hermonville 29-07-2026 - 21:34 29.7°C / 37.5%
h1-hermonville 29-07-2026 - 21:34 29.7°C / 35%
h3-hermonville 29-07-2026 - 21:30 29.7°C / 33.5%
h4-hermonville 29-07-2026 - 21:28 30°C / 34.5%
h2-hermonville 29-07-2026 - 21:24 30.1°C / 37%
h1-hermonville 29-07-2026 - 21:24 30.1°C / 36%
h3-hermonville 29-07-2026 - 21:20 30.2°C / 35.5%
h4-hermonville 29-07-2026 - 21:18 30.4°C / 35.5%
h2-hermonville 29-07-2026 - 21:14 30.5°C / 36.5%
h1-hermonville 29-07-2026 - 21:14 30.4°C / 35.5%
h3-hermonville 29-07-2026 - 21:10 30.9°C / 35%
h4-hermonville 29-07-2026 - 21:08 30.6°C / 35.5%
h2-hermonville 29-07-2026 - 21:04 31.2°C / 36%
h1-hermonville 29-07-2026 - 21:04 31°C / 35%
h3-hermonville 29-07-2026 - 21:00 31.6°C / 34%
h4-hermonville 29-07-2026 - 20:58 30.9°C / 35%
h2-hermonville 29-07-2026 - 20:54 31.9°C / 34%
h1-hermonville 29-07-2026 - 20:54 31.5°C / 34.5%
h3-hermonville 29-07-2026 - 20:50 32.1°C / 33.5%
h4-hermonville 29-07-2026 - 20:48 31.3°C / 33.5%
h2-hermonville 29-07-2026 - 20:44 31.9°C / 33.5%
h1-hermonville 29-07-2026 - 20:44 32°C / 33%
h3-hermonville 29-07-2026 - 20:40 32.9°C / 31.5%
h4-hermonville 29-07-2026 - 20:38 31.7°C / 33%
h2-hermonville 29-07-2026 - 20:34 31.6°C / 33%
h1-hermonville 29-07-2026 - 20:34 32.7°C / 32.5%
h3-hermonville 29-07-2026 - 20:30 33.4°C / 30%
h4-hermonville 29-07-2026 - 20:28 32°C / 31.5%
h2-hermonville 29-07-2026 - 20:24 32.2°C / 32%
h1-hermonville 29-07-2026 - 20:24 33.2°C / 31%
h3-hermonville 29-07-2026 - 20:20 33.9°C / 29.5%
h4-hermonville 29-07-2026 - 20:18 32.4°C / 30%
h2-hermonville 29-07-2026 - 20:14 33.2°C / 27%
h1-hermonville 29-07-2026 - 20:14 33.7°C / 26.5%
h3-hermonville 29-07-2026 - 20:10 34.6°C / 23%
h2-hermonville 29-07-2026 - 20:04 35.1°C / 24.5%
h1-hermonville 29-07-2026 - 20:04 33.9°C / 23.5%
h3-hermonville 29-07-2026 - 20:00 34.9°C / 22.5%
h4-hermonville 29-07-2026 - 19:58 32.7°C / 25.5%
h2-hermonville 29-07-2026 - 19:54 36.8°C / 23.5%
h1-hermonville 29-07-2026 - 19:54 33.9°C / 23.5%
h3-hermonville 29-07-2026 - 19:50 34.6°C / 23%
h4-hermonville 29-07-2026 - 19:48 33°C / 25%
h2-hermonville 29-07-2026 - 19:44 38.1°C / 21.5%
h1-hermonville 29-07-2026 - 19:44 34°C / 23%
h3-hermonville 29-07-2026 - 19:40 34.8°C / 22%
h4-hermonville 29-07-2026 - 19:38 33.1°C / 24.5%
h2-hermonville 29-07-2026 - 19:34 38.7°C / 20.5%
h1-hermonville 29-07-2026 - 19:34 34.1°C / 23%
h3-hermonville 29-07-2026 - 19:30 35°C / 21.5%
h2-hermonville 29-07-2026 - 19:24 39.2°C / 18.5%
h1-hermonville 29-07-2026 - 19:24 34°C / 23%
h3-hermonville 29-07-2026 - 19:20 35.1°C / 22%
h2-hermonville 29-07-2026 - 19:14 38.8°C / 19%
h1-hermonville 29-07-2026 - 19:14 34.2°C / 22.5%
h3-hermonville 29-07-2026 - 19:10 34.9°C / 22%
h4-hermonville 29-07-2026 - 19:08 33.4°C / 24%
h2-hermonville 29-07-2026 - 19:04 39.2°C / 19%
h1-hermonville 29-07-2026 - 19:04 34°C / 22.5%
h3-hermonville 29-07-2026 - 19:00 35.1°C / 21%
h4-hermonville 29-07-2026 - 18:58 33.4°C / 23%
h2-hermonville 29-07-2026 - 18:54 40.1°C / 18%
h1-hermonville 29-07-2026 - 18:54 34.1°C / 22.5%
h3-hermonville 29-07-2026 - 18:50 35°C / 21%
h4-hermonville 29-07-2026 - 18:48 33.4°C / 23%
h2-hermonville 29-07-2026 - 18:44 39.9°C / 20%
h1-hermonville 29-07-2026 - 18:44 34.2°C / 22%
h3-hermonville 29-07-2026 - 18:40 35°C / 21.5%
h2-hermonville 29-07-2026 - 18:34 39.8°C / 20%
h1-hermonville 29-07-2026 - 18:34 34.3°C / 22.5%
h3-hermonville 29-07-2026 - 18:30 35.3°C / 21%
h4-hermonville 29-07-2026 - 18:28 33.3°C / 24%
h2-hermonville 29-07-2026 - 18:24 38.9°C / 19.5%
h1-hermonville 29-07-2026 - 18:24 34.1°C / 23.5%
h3-hermonville 29-07-2026 - 18:20 35.3°C / 21.5%
h4-hermonville 29-07-2026 - 18:18 33.5°C / 25%
h2-hermonville 29-07-2026 - 18:14 39.8°C / 20%
h1-hermonville 29-07-2026 - 18:14 34.3°C / 23%
h3-hermonville 29-07-2026 - 18:10 35.1°C / 22.5%
h2-hermonville 29-07-2026 - 18:04 39.7°C / 20.5%
h1-hermonville 29-07-2026 - 18:04 34.2°C / 23.5%
h3-hermonville 29-07-2026 - 18:00 35.3°C / 22%
h4-hermonville 29-07-2026 - 17:58 33.4°C / 24.5%
h2-hermonville 29-07-2026 - 17:54 40.2°C / 19.5%
h1-hermonville 29-07-2026 - 17:54 34°C / 24%
h3-hermonville 29-07-2026 - 17:50 35.1°C / 22.5%
h4-hermonville 29-07-2026 - 17:48 33.2°C / 25%
h2-hermonville 29-07-2026 - 17:44 38.4°C / 20%
h1-hermonville 29-07-2026 - 17:44 33.7°C / 24%
h3-hermonville 29-07-2026 - 17:40 35.1°C / 22%
h2-hermonville 29-07-2026 - 17:34 39.1°C / 19.5%
h3-hermonville 29-07-2026 - 17:30 35.2°C / 22.5%
h4-hermonville 29-07-2026 - 17:28 33.2°C / 25.5%
h2-hermonville 29-07-2026 - 17:24 39.8°C / 19.5%
h1-hermonville 29-07-2026 - 17:24 34.1°C / 25%
h3-hermonville 29-07-2026 - 17:20 35.2°C / 23%
h4-hermonville 29-07-2026 - 17:18 33.1°C / 26%
h1-hermonville 29-07-2026 - 17:14 34.1°C / 25%
h3-hermonville 29-07-2026 - 17:10 34.9°C / 23.5%
h4-hermonville 29-07-2026 - 17:08 32.9°C / 26%
h2-hermonville 29-07-2026 - 17:04 38.8°C / 20.5%
h1-hermonville 29-07-2026 - 17:04 33.9°C / 25%
h2-hermonville 29-07-2026 - 16:54 37.9°C / 22%
h1-hermonville 29-07-2026 - 16:54 33.7°C / 24.5%
h3-hermonville 29-07-2026 - 16:50 34.5°C / 24.5%
h4-hermonville 29-07-2026 - 16:48 32.9°C / 26%
h2-hermonville 29-07-2026 - 16:44 38.2°C / 21.5%
h1-hermonville 29-07-2026 - 16:44 33.7°C / 25%
h3-hermonville 29-07-2026 - 16:40 34.8°C / 23.5%
h2-hermonville 29-07-2026 - 16:34 37.2°C / 22%
h1-hermonville 29-07-2026 - 16:34 33.6°C / 26%
h3-hermonville 29-07-2026 - 16:30 34.6°C / 24%
h2-hermonville 29-07-2026 - 16:24 36.4°C / 23%
h1-hermonville 29-07-2026 - 16:24 33.4°C / 26%
h3-hermonville 29-07-2026 - 16:20 34.5°C / 24%
h4-hermonville 29-07-2026 - 16:18 32.6°C / 26%
h2-hermonville 29-07-2026 - 16:14 35.9°C / 23.5%
h1-hermonville 29-07-2026 - 16:14 33.5°C / 24.5%
h3-hermonville 29-07-2026 - 16:10 34.7°C / 23%
h4-hermonville 29-07-2026 - 16:08 32.5°C / 26.5%
h2-hermonville 29-07-2026 - 16:04 35.7°C / 24%
h1-hermonville 29-07-2026 - 16:04 33.5°C / 25.5%
h3-hermonville 29-07-2026 - 16:00 34.8°C / 24%
h2-hermonville 29-07-2026 - 15:54 35.1°C / 24.5%
h1-hermonville 29-07-2026 - 15:54 33.1°C / 25.5%
h3-hermonville 29-07-2026 - 15:50 34.6°C / 23.5%
h4-hermonville 29-07-2026 - 15:48 32.5°C / 26.5%
h2-hermonville 29-07-2026 - 15:44 35.2°C / 25%
h1-hermonville 29-07-2026 - 15:44 33°C / 26.5%
h3-hermonville 29-07-2026 - 15:40 34.5°C / 24%
h4-hermonville 29-07-2026 - 15:38 32.2°C / 27.5%
h2-hermonville 29-07-2026 - 15:34 34.9°C / 24.5%
h1-hermonville 29-07-2026 - 15:34 32.9°C / 26.5%
h3-hermonville 29-07-2026 - 15:30 34.1°C / 24.5%
h4-hermonville 29-07-2026 - 15:28 31.9°C / 27.5%
h2-hermonville 29-07-2026 - 15:24 34.5°C / 27%
h1-hermonville 29-07-2026 - 15:24 32.4°C / 27.5%
h3-hermonville 29-07-2026 - 15:20 33.8°C / 25.5%
h4-hermonville 29-07-2026 - 15:18 31.9°C / 28.5%
h2-hermonville 29-07-2026 - 15:14 34.2°C / 26%
h1-hermonville 29-07-2026 - 15:14 32.2°C / 28%
h3-hermonville 29-07-2026 - 15:10 33.6°C / 25.5%
h2-hermonville 29-07-2026 - 15:04 33.4°C / 27%
h1-hermonville 29-07-2026 - 15:04 31.9°C / 28.5%
h3-hermonville 29-07-2026 - 15:00 33.3°C / 26.5%
h2-hermonville 29-07-2026 - 14:54 33.4°C / 27%
h1-hermonville 29-07-2026 - 14:54 31.9°C / 28%
h3-hermonville 29-07-2026 - 14:50 33.5°C / 26.5%
h2-hermonville 29-07-2026 - 14:44 33°C / 28.5%
h1-hermonville 29-07-2026 - 14:44 31.6°C / 30%
h3-hermonville 29-07-2026 - 14:40 33.2°C / 27.5%
h4-hermonville 29-07-2026 - 14:38 31.7°C / 29%
h2-hermonville 29-07-2026 - 14:34 32.6°C / 29%
h1-hermonville 29-07-2026 - 14:34 31.2°C / 30.5%
h3-hermonville 29-07-2026 - 14:30 33°C / 27.5%
h4-hermonville 29-07-2026 - 14:28 31.4°C / 29.5%
h1-hermonville 29-07-2026 - 14:24 31°C / 30%
h3-hermonville 29-07-2026 - 14:20 32.4°C / 28.5%
h1-hermonville 29-07-2026 - 14:14 31.2°C / 31.5%
h3-hermonville 29-07-2026 - 14:10 32.3°C / 29.5%
h4-hermonville 29-07-2026 - 14:08 31.2°C / 31.5%
h2-hermonville 29-07-2026 - 14:04 30.7°C / 32.5%
h1-hermonville 29-07-2026 - 14:04 30.5°C / 32%
h3-hermonville 29-07-2026 - 14:00 32.3°C / 29%
h4-hermonville 29-07-2026 - 13:58 31.2°C / 30.5%
h2-hermonville 29-07-2026 - 13:54 30.9°C / 33.5%
h1-hermonville 29-07-2026 - 13:54 30.4°C / 31.5%
h3-hermonville 29-07-2026 - 13:50 31.4°C / 30%
h4-hermonville 29-07-2026 - 13:48 31.1°C / 30.5%
h2-hermonville 29-07-2026 - 13:44 30.4°C / 34%
h3-hermonville 29-07-2026 - 13:40 31.7°C / 29.5%
h4-hermonville 29-07-2026 - 13:38 31.1°C / 30.5%
h2-hermonville 29-07-2026 - 13:34 31.1°C / 30.5%
h1-hermonville 29-07-2026 - 13:34 30°C / 31.5%
h3-hermonville 29-07-2026 - 13:30 31.7°C / 29.5%
h4-hermonville 29-07-2026 - 13:28 31.2°C / 29.5%
h2-hermonville 29-07-2026 - 13:24 29.6°C / 34.5%
h1-hermonville 29-07-2026 - 13:24 29.9°C / 33%
h3-hermonville 29-07-2026 - 13:20 31.3°C / 30.5%
h4-hermonville 29-07-2026 - 13:18 31.5°C / 30.5%
h2-hermonville 29-07-2026 - 13:14 29.3°C / 36.5%
h1-hermonville 29-07-2026 - 13:14 30.1°C / 33.5%
h3-hermonville 29-07-2026 - 13:10 31.2°C / 30.5%
h4-hermonville 29-07-2026 - 13:08 31.6°C / 31%
h2-hermonville 29-07-2026 - 13:04 27.9°C / 40.5%
h1-hermonville 29-07-2026 - 13:04 30°C / 34%
h3-hermonville 29-07-2026 - 13:00 31°C / 33%
h4-hermonville 29-07-2026 - 12:58 31.5°C / 31.5%
h2-hermonville 29-07-2026 - 12:54 26.7°C / 41%
h1-hermonville 29-07-2026 - 12:54 29.8°C / 34.5%
h3-hermonville 29-07-2026 - 12:50 30.4°C / 33%
h4-hermonville 29-07-2026 - 12:48 31.8°C / 31.5%
h2-hermonville 29-07-2026 - 12:44 26.1°C / 45%
h1-hermonville 29-07-2026 - 12:44 29.6°C / 34%
h3-hermonville 29-07-2026 - 12:40 30.3°C / 35%
h4-hermonville 29-07-2026 - 12:38 32.2°C / 32.5%
h2-hermonville 29-07-2026 - 12:34 26.8°C / 46%
h1-hermonville 29-07-2026 - 12:34 28.7°C / 39.5%
h3-hermonville 29-07-2026 - 12:30 30.1°C / 36.5%
h4-hermonville 29-07-2026 - 12:28 32.2°C / 34%
h2-hermonville 29-07-2026 - 12:24 26.1°C / 47.5%
h1-hermonville 29-07-2026 - 12:24 28.4°C / 42%
h3-hermonville 29-07-2026 - 12:20 29.3°C / 39%
h4-hermonville 29-07-2026 - 12:18 32.2°C / 34%
h2-hermonville 29-07-2026 - 12:14 26.1°C / 48.5%
h1-hermonville 29-07-2026 - 12:14 28.2°C / 41.5%
h3-hermonville 29-07-2026 - 12:10 29.3°C / 39.5%
h4-hermonville 29-07-2026 - 12:08 33.7°C / 32%
h2-hermonville 29-07-2026 - 12:04 25.7°C / 49.5%
h1-hermonville 29-07-2026 - 12:04 27.9°C / 43.5%
h3-hermonville 29-07-2026 - 12:00 29°C / 40.5%
h4-hermonville 29-07-2026 - 11:58 36°C / 29.5%
h2-hermonville 29-07-2026 - 11:54 25.9°C / 49%
h1-hermonville 29-07-2026 - 11:54 27.6°C / 44.5%
h3-hermonville 29-07-2026 - 11:50 28.4°C / 42.5%
h4-hermonville 29-07-2026 - 11:48 35.9°C / 29%
h2-hermonville 29-07-2026 - 11:44 25.2°C / 50.5%
h1-hermonville 29-07-2026 - 11:44 27.2°C / 44.5%
h3-hermonville 29-07-2026 - 11:40 28°C / 42.5%
h4-hermonville 29-07-2026 - 11:38 35.5°C / 30%
h2-hermonville 29-07-2026 - 11:34 25.5°C / 49%
h1-hermonville 29-07-2026 - 11:34 27.3°C / 44.5%
h3-hermonville 29-07-2026 - 11:30 27.5°C / 44%
h4-hermonville 29-07-2026 - 11:28 35.8°C / 29%
h2-hermonville 29-07-2026 - 11:24 24.7°C / 51.5%
h3-hermonville 29-07-2026 - 11:20 27.2°C / 44%
h4-hermonville 29-07-2026 - 11:18 35.6°C / 29.5%
h2-hermonville 29-07-2026 - 11:14 24.4°C / 52.5%
h1-hermonville 29-07-2026 - 11:14 26.8°C / 46%
h3-hermonville 29-07-2026 - 11:10 26.8°C / 45.5%
h4-hermonville 29-07-2026 - 11:08 37.3°C / 28%
h2-hermonville 29-07-2026 - 11:04 23.9°C / 53.5%
h1-hermonville 29-07-2026 - 11:04 26.5°C / 46.5%
h3-hermonville 29-07-2026 - 11:00 26.4°C / 46.5%
h4-hermonville 29-07-2026 - 10:58 36.1°C / 29%
h2-hermonville 29-07-2026 - 10:54 23.9°C / 53%
h1-hermonville 29-07-2026 - 10:54 26°C / 48%
h3-hermonville 29-07-2026 - 10:50 26°C / 47%
h4-hermonville 29-07-2026 - 10:48 35.9°C / 29.5%
h2-hermonville 29-07-2026 - 10:44 23.4°C / 54%
h1-hermonville 29-07-2026 - 10:44 25.5°C / 48.5%
h3-hermonville 29-07-2026 - 10:40 25.3°C / 48.5%
h4-hermonville 29-07-2026 - 10:38 35.5°C / 30%
h2-hermonville 29-07-2026 - 10:34 23.5°C / 54%
h1-hermonville 29-07-2026 - 10:34 24.9°C / 49.5%
h3-hermonville 29-07-2026 - 10:30 24.9°C / 49.5%
h4-hermonville 29-07-2026 - 10:28 35.1°C / 30%
h2-hermonville 29-07-2026 - 10:24 23.3°C / 54%
h1-hermonville 29-07-2026 - 10:24 24.5°C / 50.5%
h3-hermonville 29-07-2026 - 10:20 24.3°C / 51%
h4-hermonville 29-07-2026 - 10:18 35.9°C / 29.5%
h2-hermonville 29-07-2026 - 10:14 23.2°C / 54%
h1-hermonville 29-07-2026 - 10:14 23.9°C / 51.5%
h3-hermonville 29-07-2026 - 10:10 24°C / 51.5%
h4-hermonville 29-07-2026 - 10:08 33°C / 33%
h2-hermonville 29-07-2026 - 10:04 23.1°C / 54.5%
h1-hermonville 29-07-2026 - 10:04 23.6°C / 53%
h3-hermonville 29-07-2026 - 10:00 23.6°C / 52%
h4-hermonville 29-07-2026 - 09:58 32°C / 34.5%
h2-hermonville 29-07-2026 - 09:54 22.8°C / 54.5%
h1-hermonville 29-07-2026 - 09:54 23.2°C / 54%
h3-hermonville 29-07-2026 - 09:50 23.3°C / 53.5%
h4-hermonville 29-07-2026 - 09:48 31.6°C / 35%
h2-hermonville 29-07-2026 - 09:44 22.5°C / 55.5%
h1-hermonville 29-07-2026 - 09:44 22.7°C / 54.5%
h3-hermonville 29-07-2026 - 09:40 23°C / 54.5%
h4-hermonville 29-07-2026 - 09:38 31.3°C / 35%
h2-hermonville 29-07-2026 - 09:34 22.4°C / 56%
h1-hermonville 29-07-2026 - 09:34 22.1°C / 56%
h3-hermonville 29-07-2026 - 09:30 22.6°C / 55%
h4-hermonville 29-07-2026 - 09:28 31.1°C / 35%
h2-hermonville 29-07-2026 - 09:24 22.2°C / 56%
h1-hermonville 29-07-2026 - 09:24 21.8°C / 56.5%
h3-hermonville 29-07-2026 - 09:20 22.5°C / 55.5%
h4-hermonville 29-07-2026 - 09:18 29.7°C / 38%
h2-hermonville 29-07-2026 - 09:14 22°C / 56%
h1-hermonville 29-07-2026 - 09:14 21.4°C / 56.5%
h3-hermonville 29-07-2026 - 09:10 22.2°C / 56%
h4-hermonville 29-07-2026 - 09:08 28.9°C / 39%
h2-hermonville 29-07-2026 - 09:04 21.6°C / 57.5%
h1-hermonville 29-07-2026 - 09:04 21.2°C / 57.5%
h3-hermonville 29-07-2026 - 09:00 22°C / 57%
h4-hermonville 29-07-2026 - 08:58 27.7°C / 42.5%
h2-hermonville 29-07-2026 - 08:54 21.7°C / 58%
h1-hermonville 29-07-2026 - 08:54 20.8°C / 60%
h3-hermonville 29-07-2026 - 08:50 21.8°C / 57.5%
h4-hermonville 29-07-2026 - 08:48 26.2°C / 45%
h2-hermonville 29-07-2026 - 08:44 21.5°C / 58.5%
h1-hermonville 29-07-2026 - 08:44 20.6°C / 60.5%
h3-hermonville 29-07-2026 - 08:40 21.5°C / 58%
h4-hermonville 29-07-2026 - 08:38 24.1°C / 49.5%
h2-hermonville 29-07-2026 - 08:34 20.8°C / 60%
h1-hermonville 29-07-2026 - 08:34 20.1°C / 62%
h3-hermonville 29-07-2026 - 08:30 21.2°C / 58.5%
h4-hermonville 29-07-2026 - 08:28 23.4°C / 51.5%
h2-hermonville 29-07-2026 - 08:24 20.7°C / 60.5%
h1-hermonville 29-07-2026 - 08:24 20°C / 62%
h3-hermonville 29-07-2026 - 08:20 20.9°C / 59.5%
h4-hermonville 29-07-2026 - 08:18 22.4°C / 54.5%
h2-hermonville 29-07-2026 - 08:14 20.2°C / 60.5%
h1-hermonville 29-07-2026 - 08:14 20°C / 61.5%
h3-hermonville 29-07-2026 - 08:10 20.7°C / 59.5%
h4-hermonville 29-07-2026 - 08:08 21.4°C / 56%
h2-hermonville 29-07-2026 - 08:04 20.5°C / 60.5%
h1-hermonville 29-07-2026 - 08:04 19.8°C / 62%
h3-hermonville 29-07-2026 - 08:00 20.4°C / 60.5%
h4-hermonville 29-07-2026 - 07:58 21.6°C / 55%
h2-hermonville 29-07-2026 - 07:54 19.5°C / 64.5%
h1-hermonville 29-07-2026 - 07:54 19.7°C / 62.5%
h3-hermonville 29-07-2026 - 07:50 19.8°C / 63%
h4-hermonville 29-07-2026 - 07:48 21.3°C / 58%
h2-hermonville 29-07-2026 - 07:44 19.2°C / 66%
h1-hermonville 29-07-2026 - 07:44 19.5°C / 63.5%
h3-hermonville 29-07-2026 - 07:40 19.4°C / 64.5%
h4-hermonville 29-07-2026 - 07:38 20.8°C / 59.5%
h2-hermonville 29-07-2026 - 07:34 18.9°C / 68%
h1-hermonville 29-07-2026 - 07:34 19.2°C / 65.5%
h3-hermonville 29-07-2026 - 07:30 19.1°C / 66%
h4-hermonville 29-07-2026 - 07:28 20.5°C / 60.5%
h2-hermonville 29-07-2026 - 07:24 18.4°C / 69%
h1-hermonville 29-07-2026 - 07:24 19.1°C / 66%
h3-hermonville 29-07-2026 - 07:20 18.8°C / 66.5%
h4-hermonville 29-07-2026 - 07:18 20.1°C / 61.5%
h2-hermonville 29-07-2026 - 07:14 18°C / 70%
h1-hermonville 29-07-2026 - 07:14 18.9°C / 67%
h3-hermonville 29-07-2026 - 07:10 18.6°C / 67.5%
h4-hermonville 29-07-2026 - 07:08 20°C / 62%
h2-hermonville 29-07-2026 - 07:04 17.9°C / 71%
h1-hermonville 29-07-2026 - 07:04 18.7°C / 68%
h3-hermonville 29-07-2026 - 07:00 18.5°C / 68%
h4-hermonville 29-07-2026 - 06:58 19.9°C / 62.5%
h2-hermonville 29-07-2026 - 06:54 17.7°C / 71.5%
h1-hermonville 29-07-2026 - 06:54 18.3°C / 68.5%
h3-hermonville 29-07-2026 - 06:50 18.3°C / 68.5%
h4-hermonville 29-07-2026 - 06:48 19.6°C / 63%
h2-hermonville 29-07-2026 - 06:44 17.6°C / 71.5%
h1-hermonville 29-07-2026 - 06:44 18.3°C / 69%
h3-hermonville 29-07-2026 - 06:40 18°C / 69.5%
h4-hermonville 29-07-2026 - 06:38 19.5°C / 63.5%
h2-hermonville 29-07-2026 - 06:34 17.7°C / 71.5%
h1-hermonville 29-07-2026 - 06:34 17.9°C / 70.5%
h3-hermonville 29-07-2026 - 06:30 18.3°C / 68.5%
h4-hermonville 29-07-2026 - 06:28 19.5°C / 63%
h2-hermonville 29-07-2026 - 06:24 17.8°C / 70.5%
h1-hermonville 29-07-2026 - 06:24 17.6°C / 71%
h4-hermonville 29-07-2026 - 06:18 19.5°C / 63%
h2-hermonville 29-07-2026 - 06:14 17.9°C / 70.5%
h1-hermonville 29-07-2026 - 06:14 17.7°C / 71%
h3-hermonville 29-07-2026 - 06:10 18.2°C / 69%
h4-hermonville 29-07-2026 - 06:08 20°C / 61.5%
h2-hermonville 29-07-2026 - 06:04 18°C / 70%
h1-hermonville 29-07-2026 - 06:04 17.9°C / 70%
h3-hermonville 29-07-2026 - 06:00 18.3°C / 68.5%
h4-hermonville 29-07-2026 - 05:58 19.8°C / 62%
h2-hermonville 29-07-2026 - 05:54 17.9°C / 70.5%
h1-hermonville 29-07-2026 - 05:54 18.1°C / 69.5%
h3-hermonville 29-07-2026 - 05:50 18.5°C / 67.5%
h4-hermonville 29-07-2026 - 05:48 19.9°C / 61.5%
h2-hermonville 29-07-2026 - 05:44 18°C / 70.5%
h1-hermonville 29-07-2026 - 05:44 18.3°C / 68.5%
h3-hermonville 29-07-2026 - 05:40 18.7°C / 66.5%
h4-hermonville 29-07-2026 - 05:38 19.8°C / 62%
h2-hermonville 29-07-2026 - 05:34 18.3°C / 69.5%
h1-hermonville 29-07-2026 - 05:34 18.3°C / 68.5%
h3-hermonville 29-07-2026 - 05:30 18.8°C / 66.5%
h4-hermonville 29-07-2026 - 05:28 20.2°C / 60.5%
h2-hermonville 29-07-2026 - 05:24 18.2°C / 69.5%
h1-hermonville 29-07-2026 - 05:24 18.8°C / 67%
h3-hermonville 29-07-2026 - 05:20 18.9°C / 66%
h4-hermonville 29-07-2026 - 05:18 20.1°C / 60.5%
h2-hermonville 29-07-2026 - 05:14 18.3°C / 69%
h1-hermonville 29-07-2026 - 05:14 18.7°C / 67%
h3-hermonville 29-07-2026 - 05:10 19.1°C / 65%
h4-hermonville 29-07-2026 - 05:08 20.2°C / 60.5%
h2-hermonville 29-07-2026 - 05:04 18.6°C / 68%
h3-hermonville 29-07-2026 - 05:00 19°C / 65.5%
h4-hermonville 29-07-2026 - 04:58 20.6°C / 59.5%
h2-hermonville 29-07-2026 - 04:54 18.6°C / 68%
h1-hermonville 29-07-2026 - 04:54 18.9°C / 66%
h3-hermonville 29-07-2026 - 04:50 19.2°C / 65%
h4-hermonville 29-07-2026 - 04:48 20.5°C / 60%
h2-hermonville 29-07-2026 - 04:44 18.6°C / 68%
h1-hermonville 29-07-2026 - 04:44 19.2°C / 65%
h3-hermonville 29-07-2026 - 04:40 19.5°C / 64%
h4-hermonville 29-07-2026 - 04:38 20.6°C / 59.5%
h2-hermonville 29-07-2026 - 04:34 18.9°C / 66.5%
h1-hermonville 29-07-2026 - 04:34 19.2°C / 65.5%
h3-hermonville 29-07-2026 - 04:30 19.6°C / 64%
h4-hermonville 29-07-2026 - 04:28 20.8°C / 58.5%
h2-hermonville 29-07-2026 - 04:24 19°C / 66.5%
h1-hermonville 29-07-2026 - 04:24 19.6°C / 64%
h3-hermonville 29-07-2026 - 04:20 20.1°C / 62%
h4-hermonville 29-07-2026 - 04:18 20.9°C / 58.5%
h2-hermonville 29-07-2026 - 04:14 19.2°C / 66.5%
h1-hermonville 29-07-2026 - 04:14 19.9°C / 63%
h3-hermonville 29-07-2026 - 04:10 20°C / 62%
h4-hermonville 29-07-2026 - 04:08 21.1°C / 58%
h2-hermonville 29-07-2026 - 04:04 19.1°C / 66%
h1-hermonville 29-07-2026 - 04:04 19.7°C / 63.5%
h4-hermonville 29-07-2026 - 03:58 21.1°C / 58%
h1-hermonville 29-07-2026 - 03:54 19.8°C / 63.5%
h3-hermonville 29-07-2026 - 03:50 20.2°C / 62%
h4-hermonville 29-07-2026 - 03:48 21.3°C / 58%
h2-hermonville 29-07-2026 - 03:44 19.6°C / 65.5%
h1-hermonville 29-07-2026 - 03:44 19.5°C / 65%
h3-hermonville 29-07-2026 - 03:40 20.1°C / 62.5%
h4-hermonville 29-07-2026 - 03:38 21.3°C / 58%
h2-hermonville 29-07-2026 - 03:34 19.8°C / 65%
h1-hermonville 29-07-2026 - 03:34 19.6°C / 65%
h4-hermonville 29-07-2026 - 03:28 21.3°C / 58.5%
h2-hermonville 29-07-2026 - 03:24 20.1°C / 64%
h1-hermonville 29-07-2026 - 03:24 19.8°C / 64.5%
h3-hermonville 29-07-2026 - 03:20 20.5°C / 62%
h4-hermonville 29-07-2026 - 03:18 21.7°C / 57%
h2-hermonville 29-07-2026 - 03:14 20.3°C / 63.5%
h1-hermonville 29-07-2026 - 03:14 20.5°C / 62%
h3-hermonville 29-07-2026 - 03:10 20.4°C / 61.5%
h4-hermonville 29-07-2026 - 03:08 21.8°C / 56.5%
h1-hermonville 29-07-2026 - 03:04 20.4°C / 62%
h3-hermonville 29-07-2026 - 03:00 20.8°C / 60.5%
h4-hermonville 29-07-2026 - 02:58 21.9°C / 56.5%
h2-hermonville 29-07-2026 - 02:54 20.4°C / 62.5%
h1-hermonville 29-07-2026 - 02:54 20.7°C / 61%
h3-hermonville 29-07-2026 - 02:50 21.2°C / 59.5%
h4-hermonville 29-07-2026 - 02:48 22.2°C / 55.5%
h2-hermonville 29-07-2026 - 02:44 20.7°C / 61.5%
h1-hermonville 29-07-2026 - 02:44 21°C / 60%
h3-hermonville 29-07-2026 - 02:40 20.9°C / 59.5%
h4-hermonville 29-07-2026 - 02:38 22.5°C / 54%
h2-hermonville 29-07-2026 - 02:34 20.9°C / 60.5%
h1-hermonville 29-07-2026 - 02:34 21.2°C / 59%
h3-hermonville 29-07-2026 - 02:30 21.4°C / 58%
h4-hermonville 29-07-2026 - 02:28 22.4°C / 54.5%
h2-hermonville 29-07-2026 - 02:24 20.9°C / 60.5%
h1-hermonville 29-07-2026 - 02:24 21.3°C / 59%
h3-hermonville 29-07-2026 - 02:20 21.3°C / 58%
h4-hermonville 29-07-2026 - 02:18 22.8°C / 53%
h2-hermonville 29-07-2026 - 02:14 21.3°C / 60%
h1-hermonville 29-07-2026 - 02:14 21.6°C / 57.5%
h3-hermonville 29-07-2026 - 02:10 21.8°C / 56%
h4-hermonville 29-07-2026 - 02:08 22.7°C / 53%
h1-hermonville 29-07-2026 - 02:04 21.5°C / 57.5%
h3-hermonville 29-07-2026 - 02:00 22.1°C / 55.5%
h4-hermonville 29-07-2026 - 01:58 22.9°C / 53%
h2-hermonville 29-07-2026 - 01:54 21.6°C / 57.5%
h1-hermonville 29-07-2026 - 01:54 22°C / 56.5%
h3-hermonville 29-07-2026 - 01:50 22.3°C / 55%
h4-hermonville 29-07-2026 - 01:48 23.1°C / 52%
h2-hermonville 29-07-2026 - 01:44 21.6°C / 58.5%
h1-hermonville 29-07-2026 - 01:44 22°C / 56.5%
h3-hermonville 29-07-2026 - 01:40 22°C / 55.5%
h4-hermonville 29-07-2026 - 01:38 23°C / 52%
h2-hermonville 29-07-2026 - 01:34 21.7°C / 58%
h1-hermonville 29-07-2026 - 01:34 22°C / 56%
h3-hermonville 29-07-2026 - 01:30 22.4°C / 54%
h4-hermonville 29-07-2026 - 01:28 23.4°C / 51.5%
h2-hermonville 29-07-2026 - 01:24 22.1°C / 56.5%
h1-hermonville 29-07-2026 - 01:24 22.2°C / 55.5%
h3-hermonville 29-07-2026 - 01:20 23.1°C / 53%
h4-hermonville 29-07-2026 - 01:18 23.2°C / 52%
h2-hermonville 29-07-2026 - 01:14 22.2°C / 56%
h1-hermonville 29-07-2026 - 01:14 22.3°C / 55%
h3-hermonville 29-07-2026 - 01:10 23°C / 52.5%
h4-hermonville 29-07-2026 - 01:08 23.3°C / 51.5%
h2-hermonville 29-07-2026 - 01:04 22.3°C / 55.5%
h1-hermonville 29-07-2026 - 01:04 22.3°C / 55%
h3-hermonville 29-07-2026 - 01:00 23.2°C / 52.5%
h4-hermonville 29-07-2026 - 00:58 23.5°C / 51%
h2-hermonville 29-07-2026 - 00:54 22.5°C / 55.5%
h1-hermonville 29-07-2026 - 00:54 22.6°C / 54.5%
h3-hermonville 29-07-2026 - 00:50 23.3°C / 52%
h4-hermonville 29-07-2026 - 00:48 23.7°C / 50.5%
h2-hermonville 29-07-2026 - 00:44 22.7°C / 54.5%
h1-hermonville 29-07-2026 - 00:44 22.5°C / 54.5%
h3-hermonville 29-07-2026 - 00:40 23.6°C / 51.5%
h4-hermonville 29-07-2026 - 00:38 23.9°C / 49.5%
h2-hermonville 29-07-2026 - 00:34 22.8°C / 54.5%
h1-hermonville 29-07-2026 - 00:34 22.8°C / 54%
h4-hermonville 29-07-2026 - 00:28 24°C / 49.5%
h2-hermonville 29-07-2026 - 00:24 22.9°C / 54.5%
h1-hermonville 29-07-2026 - 00:24 23°C / 53%
h3-hermonville 29-07-2026 - 00:20 23.6°C / 51.5%
h4-hermonville 29-07-2026 - 00:18 24°C / 50%
h2-hermonville 29-07-2026 - 00:14 23.2°C / 53.5%
h1-hermonville 29-07-2026 - 00:14 23.1°C / 53%
h3-hermonville 29-07-2026 - 00:10 23.8°C / 50.5%
h2-hermonville 29-07-2026 - 00:04 23.3°C / 52.5%
h1-hermonville 29-07-2026 - 00:04 23.3°C / 52.5%
h3-hermonville 29-07-2026 - 00:00 23.9°C / 50.5%